Walker, Minnesota
Current Conditions -  °F | °C
As of 4:15 PM on Tuesday 25 Nov 2014 (Local Time) from KY49 Reporting Station
Broken Clouds Broken Clouds  
Wind Chill: 14°   Ceiling: 1600
Heat Index: 21°   Visibility: 10mi
Dew Point: 11°   Wind: 5mph
Humidity: 66%   Direction: 190°S
Pressure: 29.93"   Gusts: NA
Location:  47.1°N, 94.59°W
Report Text: KY49 252215Z AUTO 19004KT 10SM BKN016 M06/M12 A2993 RMK AO2 T10631118
Loading
Personal Weather Stations






























Interactive Weather Map New forecast layout! Learn more

10-Day Weather Forecast

Advertisements
Track Severe Weather on mobile